createdAt,value
2022-11-10T00:01:11.426Z,62.25
2022-11-10T00:03:58.919Z,61.72
2022-11-10T00:06:46.606Z,61.39
2022-11-10T00:09:32.357Z,61.22
2022-11-10T00:12:17.955Z,61.28
2022-11-10T00:15:22.678Z,61.37
2022-11-10T00:18:08.534Z,61.29
2022-11-10T00:20:54.174Z,61.19
2022-11-10T00:23:39.871Z,61.61
2022-11-10T00:26:25.762Z,61.37
2022-11-10T00:29:11.278Z,61.40
2022-11-10T00:31:57.214Z,60.90
2022-11-10T00:34:42.614Z,60.93
2022-11-10T00:37:28.433Z,61.10
2022-11-10T00:40:13.989Z,61.12
2022-11-10T00:42:59.445Z,61.22
2022-11-10T00:45:46.697Z,61.26
2022-11-10T00:48:32.165Z,61.16
2022-11-10T00:51:17.945Z,60.97
2022-11-10T00:54:03.853Z,61.09
2022-11-10T00:56:49.400Z,61.21
2022-11-10T00:59:34.993Z,61.05
2022-11-10T01:02:20.824Z,61.07
2022-11-10T01:05:06.543Z,61.05
2022-11-10T01:07:52.113Z,61.10
2022-11-10T01:10:37.628Z,61.46
2022-11-10T01:13:23.602Z,61.28
2022-11-10T01:16:11.080Z,61.41
2022-11-10T01:19:01.627Z,61.55
2022-11-10T01:21:47.217Z,61.22
2022-11-10T01:24:33.067Z,61.41
2022-11-10T01:27:18.620Z,61.21
2022-11-10T01:30:04.732Z,61.23
2022-11-10T01:32:50.604Z,61.27
2022-11-10T01:35:36.291Z,61.43
2022-11-10T01:38:22.066Z,61.42
2022-11-10T01:41:08.388Z,61.50
2022-11-10T01:43:54.271Z,61.27
2022-11-10T01:46:40.110Z,61.70
2022-11-10T01:49:26.248Z,61.50
2022-11-10T01:52:12.565Z,61.54
2022-11-10T01:54:58.617Z,61.68
2022-11-10T01:57:44.385Z,61.82
2022-11-10T02:00:30.109Z,61.93
2022-11-10T02:03:34.428Z,61.90
2022-11-10T02:06:20.540Z,61.86
2022-11-10T02:09:06.260Z,62.77
2022-11-10T02:11:52.066Z,62.45
2022-11-10T02:14:37.965Z,62.95
2022-11-10T02:17:23.579Z,62.31
2022-11-10T02:20:10.331Z,62.62
2022-11-10T02:22:55.956Z,62.23
2022-11-10T02:25:41.764Z,63.14
2022-11-10T02:28:27.649Z,62.49
2022-11-10T02:31:13.362Z,62.62
2022-11-10T02:33:58.761Z,63.46
2022-11-10T02:36:44.608Z,62.85
2022-11-10T02:39:30.463Z,62.56
2022-11-10T02:42:16.143Z,62.14
2022-11-10T02:45:02.004Z,62.16
2022-11-10T02:47:47.596Z,61.99
2022-11-10T02:50:33.388Z,62.55
2022-11-10T02:53:19.583Z,62.22
2022-11-10T02:56:05.728Z,61.89
2022-11-10T02:58:51.665Z,62.38
2022-11-10T03:01:37.534Z,62.35
2022-11-10T03:04:23.532Z,62.53
2022-11-10T03:07:09.398Z,62.32
2022-11-10T03:09:55.380Z,61.82
2022-11-10T03:12:41.096Z,61.70
2022-11-10T03:15:26.887Z,62.03
2022-11-10T03:18:12.381Z,62.22
2022-11-10T03:20:57.935Z,62.13
2022-11-10T03:23:43.954Z,63.29
2022-11-10T03:26:29.638Z,63.35
2022-11-10T03:29:15.680Z,64.47
2022-11-10T03:32:01.467Z,63.99
2022-11-10T03:34:47.252Z,63.25
2022-11-10T03:37:32.793Z,63.08
2022-11-10T03:40:18.741Z,63.38
2022-11-10T03:43:04.598Z,63.21
2022-11-10T03:45:50.650Z,62.96
2022-11-10T03:48:36.290Z,62.85
2022-11-10T03:51:22.399Z,62.84
2022-11-10T03:54:08.083Z,63.83
2022-11-10T03:56:54.457Z,63.44
2022-11-10T03:59:40.139Z,63.86
2022-11-10T04:02:25.944Z,63.39
2022-11-10T04:05:30.031Z,63.90
2022-11-10T04:08:35.070Z,64.34
2022-11-10T04:11:39.691Z,64.10
2022-11-10T04:14:44.276Z,63.92
2022-11-10T04:17:31.351Z,63.63
2022-11-10T04:20:17.024Z,64.16
2022-11-10T04:23:21.645Z,64.92
2022-11-10T04:26:29.217Z,64.29
2022-11-10T04:29:15.853Z,63.56
2022-11-10T04:32:01.695Z,63.16
2022-11-10T04:34:47.372Z,62.46
2022-11-10T04:37:32.982Z,62.62
2022-11-10T04:40:18.832Z,63.13
2022-11-10T04:43:04.253Z,63.00
2022-11-10T04:45:49.931Z,62.78
2022-11-10T04:48:35.655Z,62.50
2022-11-10T04:51:22.305Z,62.80
2022-11-10T04:54:08.466Z,62.99
2022-11-10T04:56:54.166Z,63.45
2022-11-10T04:59:39.924Z,63.37
2022-11-10T05:02:25.625Z,63.27
2022-11-10T05:05:11.721Z,62.81
2022-11-10T05:07:57.712Z,62.85
2022-11-10T05:10:43.525Z,63.67
2022-11-10T05:13:29.249Z,63.11
2022-11-10T05:16:15.047Z,62.64
2022-11-10T05:19:00.845Z,62.59
2022-11-10T05:21:46.392Z,63.71
2022-11-10T05:24:32.106Z,63.61
2022-11-10T05:27:17.758Z,63.14
2022-11-10T05:30:03.992Z,63.17
2022-11-10T05:32:49.628Z,63.30
2022-11-10T05:35:35.840Z,63.07
2022-11-10T05:38:21.745Z,62.95
2022-11-10T05:41:07.592Z,62.41
2022-11-10T05:43:53.260Z,62.50
2022-11-10T05:46:39.011Z,62.80
2022-11-10T05:49:24.460Z,62.87
2022-11-10T05:52:10.229Z,62.93
2022-11-10T05:54:55.883Z,62.90
2022-11-10T05:57:42.292Z,63.37
2022-11-10T06:00:28.819Z,63.59
2022-11-10T06:03:18.170Z,63.12
2022-11-10T06:06:04.556Z,63.75
2022-11-10T06:08:50.540Z,62.55
2022-11-10T06:11:36.068Z,62.46
2022-11-10T06:14:21.986Z,63.48
2022-11-10T06:17:07.335Z,63.41
2022-11-10T06:19:53.214Z,62.81
2022-11-10T06:22:39.117Z,63.49
2022-11-10T06:25:24.840Z,61.94
2022-11-10T06:28:11.071Z,62.61
2022-11-10T06:30:57.056Z,62.34
2022-11-10T06:33:42.901Z,62.80
2022-11-10T06:36:28.775Z,62.59
2022-11-10T06:39:14.527Z,61.66
2022-11-10T06:42:00.385Z,62.54
2022-11-10T06:44:46.112Z,62.32
2022-11-10T06:47:31.941Z,62.29
2022-11-10T06:50:17.947Z,61.39
2022-11-10T06:53:03.954Z,63.67
2022-11-10T06:55:50.376Z,61.69
2022-11-10T06:58:35.940Z,61.20
2022-11-10T07:01:26.229Z,61.48
2022-11-10T07:04:20.935Z,61.82
2022-11-10T07:07:06.744Z,64.40
2022-11-10T07:09:52.646Z,62.37
2022-11-10T07:12:38.461Z,62.56
2022-11-10T07:15:23.871Z,63.25
2022-11-10T07:18:09.905Z,62.55
2022-11-10T07:20:55.698Z,62.86
2022-11-10T07:23:42.109Z,63.15
2022-11-10T07:26:28.041Z,65.24
2022-11-10T07:29:13.516Z,64.35
2022-11-10T07:31:59.587Z,62.72
2022-11-10T07:34:45.352Z,62.22
2022-11-10T07:37:31.169Z,61.96
2022-11-10T07:40:17.190Z,62.75
2022-11-10T07:43:03.029Z,63.42
2022-11-10T07:45:49.438Z,61.97
2022-11-10T07:48:35.237Z,63.69
2022-11-10T07:51:20.943Z,61.88
2022-11-10T07:54:06.899Z,61.93
2022-11-10T07:56:52.570Z,62.15
2022-11-10T07:59:38.388Z,62.16
2022-11-10T08:02:24.260Z,63.35
2022-11-10T08:05:10.137Z,65.13
2022-11-10T08:07:55.807Z,63.88
2022-11-10T08:10:41.565Z,62.34
2022-11-10T08:13:27.024Z,63.32
2022-11-10T08:16:12.928Z,63.81
2022-11-10T08:18:58.745Z,63.78
2022-11-10T08:21:44.624Z,62.06
2022-11-10T08:24:30.313Z,62.48
2022-11-10T08:27:16.046Z,61.35
2022-11-10T08:30:01.921Z,62.77
2022-11-10T08:32:47.653Z,62.71
2022-11-10T08:35:35.310Z,62.06
2022-11-10T08:38:21.883Z,62.49
2022-11-10T08:41:07.718Z,62.37
2022-11-10T08:43:53.651Z,62.41
2022-11-10T08:46:39.684Z,63.45
2022-11-10T08:49:25.007Z,63.08
2022-11-10T08:52:11.235Z,63.37
2022-11-10T08:54:56.994Z,63.14
2022-11-10T08:57:43.052Z,61.71
2022-11-10T09:00:29.214Z,62.13
2022-11-10T09:03:19.268Z,61.98
2022-11-10T09:06:05.473Z,62.55
2022-11-10T09:08:51.374Z,62.58
2022-11-10T09:11:37.102Z,61.00
2022-11-10T09:14:23.084Z,62.43
2022-11-10T09:17:08.682Z,62.76
2022-11-10T09:19:54.557Z,60.79
2022-11-10T09:22:40.265Z,62.37
2022-11-10T09:25:26.105Z,61.77
2022-11-10T09:28:12.487Z,62.30
2022-11-10T09:30:58.057Z,63.24
2022-11-10T09:33:43.771Z,63.59
2022-11-10T09:36:29.699Z,62.96
2022-11-10T09:39:15.633Z,64.14
2022-11-10T09:42:01.391Z,62.28
2022-11-10T09:44:52.131Z,63.72
2022-11-10T09:47:58.498Z,64.32
2022-11-10T09:50:47.892Z,64.57
2022-11-10T09:53:36.785Z,63.29
2022-11-10T09:56:27.796Z,61.79
2022-11-10T09:59:16.675Z,62.64
2022-11-10T10:02:11.796Z,61.60
2022-11-10T10:05:16.247Z,61.12
2022-11-10T10:08:01.775Z,62.27
2022-11-10T10:10:49.367Z,61.19
2022-11-10T10:13:54.037Z,62.60
2022-11-10T10:16:58.185Z,61.05
2022-11-10T10:19:51.072Z,62.95
2022-11-10T10:22:42.515Z,64.25
2022-11-10T10:25:28.083Z,63.33
2022-11-10T10:28:20.546Z,64.72
2022-11-10T10:31:24.914Z,63.01
2022-11-10T10:34:17.945Z,62.72
2022-11-10T10:37:03.438Z,61.34
2022-11-10T10:39:49.625Z,61.00
2022-11-10T10:42:36.364Z,60.70
2022-11-10T10:45:25.042Z,60.64
2022-11-10T10:48:27.348Z,59.48
2022-11-10T10:51:29.281Z,61.52
2022-11-10T10:54:27.018Z,61.77
2022-11-10T10:57:38.852Z,59.98
2022-11-10T11:00:25.190Z,58.71
2022-11-10T11:03:19.984Z,60.32
2022-11-10T11:06:06.872Z,59.89
2022-11-10T11:08:59.492Z,61.83
2022-11-10T11:11:46.190Z,61.10
2022-11-10T11:14:32.550Z,60.22
2022-11-10T11:17:19.387Z,60.19
2022-11-10T11:20:09.371Z,57.81
2022-11-10T11:23:00.336Z,57.30
2022-11-10T11:25:46.281Z,58.09
2022-11-10T11:28:58.238Z,59.02
2022-11-10T11:31:51.087Z,59.23
2022-11-10T11:34:55.006Z,58.43
2022-11-10T11:37:52.842Z,60.88
2022-11-10T11:40:56.906Z,61.41
2022-11-10T11:44:01.110Z,60.61
2022-11-10T11:46:50.891Z,60.62
2022-11-10T11:49:41.197Z,59.88
2022-11-10T11:52:37.973Z,59.96
2022-11-10T11:55:26.300Z,57.79
2022-11-10T11:58:25.450Z,59.11
2022-11-10T12:01:20.272Z,58.13
2022-11-10T12:04:14.923Z,57.67
2022-11-10T12:07:29.846Z,58.60
2022-11-10T12:10:43.286Z,60.36
2022-11-10T12:13:30.172Z,59.59
2022-11-10T12:16:15.954Z,59.62
2022-11-10T12:19:08.102Z,58.62
2022-11-10T12:21:56.504Z,58.95
2022-11-10T12:24:53.605Z,57.99
2022-11-10T12:27:43.475Z,60.74
2022-11-10T12:30:29.031Z,59.48
2022-11-10T12:33:18.124Z,58.97
2022-11-10T12:36:05.680Z,59.14
2022-11-10T12:38:59.618Z,58.81
2022-11-10T12:41:47.124Z,62.06
2022-11-10T12:44:35.402Z,61.99
2022-11-10T12:47:20.931Z,62.04
2022-11-10T12:50:14.778Z,59.17
2022-11-10T12:53:06.694Z,60.33
2022-11-10T12:56:00.169Z,61.16
2022-11-10T12:58:45.640Z,60.30
2022-11-10T13:01:31.441Z,62.34
2022-11-10T13:04:17.564Z,61.29
2022-11-10T13:07:06.440Z,59.54
2022-11-10T13:09:54.989Z,59.29
2022-11-10T13:12:53.558Z,58.46
2022-11-10T13:15:39.304Z,58.74
2022-11-10T13:18:31.442Z,59.00
2022-11-10T13:21:17.456Z,58.56
2022-11-10T13:24:03.282Z,59.92
2022-11-10T13:26:55.498Z,60.15
2022-11-10T13:29:47.297Z,59.75
2022-11-10T13:32:36.118Z,60.44
2022-11-10T13:35:28.141Z,59.27
2022-11-10T13:38:32.105Z,61.13
2022-11-10T13:41:18.322Z,60.89
2022-11-10T13:44:20.398Z,60.54
2022-11-10T13:47:09.428Z,60.44
2022-11-10T13:50:13.589Z,59.52
2022-11-10T13:52:59.111Z,63.37
2022-11-10T13:55:52.455Z,63.13
2022-11-10T13:58:40.329Z,60.96
2022-11-10T14:01:28.160Z,61.04
2022-11-10T14:04:34.932Z,60.32
2022-11-10T14:07:20.818Z,60.82
2022-11-10T14:10:29.764Z,60.92
2022-11-10T14:13:19.528Z,61.47
2022-11-10T14:16:12.246Z,60.03
2022-11-10T14:19:00.197Z,61.06
2022-11-10T14:21:54.006Z,60.37
2022-11-10T14:24:51.837Z,59.44
2022-11-10T14:27:37.531Z,61.66
2022-11-10T14:30:26.945Z,62.87
2022-11-10T14:33:13.272Z,63.69
2022-11-10T14:36:00.357Z,61.68
2022-11-10T14:38:46.011Z,62.54
2022-11-10T14:41:31.444Z,63.10
2022-11-10T14:44:21.311Z,60.41
2022-11-10T14:47:13.911Z,61.68
2022-11-10T14:50:14.991Z,60.29
2022-11-10T14:53:24.026Z,60.70
2022-11-10T14:56:16.936Z,62.08
2022-11-10T14:59:06.004Z,59.69
2022-11-10T15:01:54.799Z,59.41
2022-11-10T15:04:43.955Z,60.08
2022-11-10T15:07:31.781Z,61.23
2022-11-10T15:10:17.478Z,61.20
2022-11-10T15:13:07.120Z,62.08
2022-11-10T15:15:53.745Z,61.87
2022-11-10T15:18:39.569Z,60.29
2022-11-10T15:21:28.012Z,61.31
2022-11-10T15:24:13.574Z,63.03
2022-11-10T15:26:59.448Z,62.08
2022-11-10T15:29:44.944Z,61.37
2022-11-10T15:32:50.663Z,63.04
2022-11-10T15:35:36.413Z,61.40
2022-11-10T15:38:25.195Z,60.90
2022-11-10T15:41:12.266Z,62.11
2022-11-10T15:43:57.893Z,60.07
2022-11-10T15:46:44.408Z,60.53
2022-11-10T15:49:35.496Z,59.36
2022-11-10T15:52:21.506Z,64.01
2022-11-10T15:55:18.786Z,62.55
2022-11-10T15:58:05.911Z,62.45
2022-11-10T16:00:51.556Z,61.96
2022-11-10T16:03:37.128Z,62.53
2022-11-10T16:06:22.702Z,62.56
2022-11-10T16:09:10.551Z,63.20
2022-11-10T16:11:56.399Z,63.00
2022-11-10T16:14:42.309Z,62.81
2022-11-10T16:17:28.395Z,61.90
2022-11-10T16:20:14.873Z,63.64
2022-11-10T16:23:00.746Z,62.60
2022-11-10T16:25:46.944Z,64.61
2022-11-10T16:28:32.611Z,63.11
2022-11-10T16:31:19.303Z,65.52
2022-11-10T16:34:04.995Z,64.99
2022-11-10T16:36:51.271Z,65.91
2022-11-10T16:39:37.099Z,65.24
2022-11-10T16:42:22.895Z,65.72
2022-11-10T16:45:18.910Z,65.42
2022-11-10T16:48:04.738Z,65.60
2022-11-10T16:50:52.504Z,64.00
2022-11-10T16:53:38.529Z,64.98
2022-11-10T16:56:24.278Z,62.00
2022-11-10T16:59:10.709Z,63.15
2022-11-10T17:01:57.260Z,61.69
2022-11-10T17:04:43.319Z,64.17
2022-11-10T17:07:29.068Z,63.83
2022-11-10T17:10:15.924Z,63.48
2022-11-10T17:13:02.095Z,64.53
2022-11-10T17:15:48.097Z,63.39
2022-11-10T17:18:34.026Z,62.80
2022-11-10T17:21:20.342Z,62.74
2022-11-10T17:24:06.444Z,61.58
2022-11-10T17:26:52.403Z,63.24
2022-11-10T17:29:38.114Z,62.26
2022-11-10T17:32:43.193Z,62.13
2022-11-10T17:35:29.664Z,62.21
2022-11-10T17:38:17.541Z,61.52
2022-11-10T17:41:03.399Z,60.50
2022-11-10T17:43:48.862Z,59.96
2022-11-10T17:46:34.793Z,60.22
2022-11-10T17:49:20.686Z,59.51
2022-11-10T17:52:06.506Z,59.34
2022-11-10T17:54:52.347Z,61.62
2022-11-10T17:57:38.189Z,63.51
2022-11-10T18:00:25.344Z,61.51
2022-11-10T18:03:14.819Z,61.41
2022-11-10T18:06:00.766Z,62.33
2022-11-10T18:08:47.166Z,62.45
2022-11-10T18:11:33.637Z,63.00
2022-11-10T18:14:19.554Z,62.14
2022-11-10T18:17:05.262Z,60.78
2022-11-10T18:19:51.178Z,61.32
2022-11-10T18:22:36.826Z,61.29
2022-11-10T18:25:26.486Z,61.58
2022-11-10T18:28:13.781Z,62.58
2022-11-10T18:31:04.860Z,63.16
2022-11-10T18:33:53.112Z,65.37
2022-11-10T18:36:38.623Z,63.55
2022-11-10T18:39:24.638Z,64.39
2022-11-10T18:42:10.273Z,65.65
2022-11-10T18:44:56.018Z,66.36
2022-11-10T18:47:41.995Z,67.21
2022-11-10T18:50:27.758Z,66.81
2022-11-10T18:53:13.617Z,66.35
2022-11-10T18:55:59.957Z,66.00
2022-11-10T18:58:50.198Z,64.20
2022-11-10T19:01:39.924Z,63.04
2022-11-10T19:04:25.814Z,63.93
2022-11-10T19:07:11.939Z,62.85
2022-11-10T19:09:57.708Z,61.84
2022-11-10T19:12:43.487Z,62.98
2022-11-10T19:15:29.020Z,62.56
2022-11-10T19:18:15.146Z,62.14
2022-11-10T19:21:08.045Z,61.57
2022-11-10T19:23:57.060Z,60.50
2022-11-10T19:26:42.833Z,60.18
2022-11-10T19:29:28.684Z,61.14
2022-11-10T19:32:18.607Z,61.04
2022-11-10T19:35:08.162Z,60.29
2022-11-10T19:37:54.158Z,59.44
2022-11-10T19:40:39.930Z,60.17
2022-11-10T19:43:25.803Z,60.62
2022-11-10T19:46:15.414Z,61.36
2022-11-10T19:49:01.488Z,60.29
2022-11-10T19:51:48.486Z,61.13
2022-11-10T19:54:34.295Z,60.44
2022-11-10T19:57:20.236Z,60.40
2022-11-10T20:00:07.029Z,59.95
2022-11-10T20:02:52.741Z,60.89
2022-11-10T20:05:39.862Z,60.87
2022-11-10T20:08:26.093Z,62.16
2022-11-10T20:11:17.429Z,61.66
2022-11-10T20:14:03.841Z,60.76
2022-11-10T20:16:49.505Z,61.31
2022-11-10T20:19:40.880Z,61.97
2022-11-10T20:22:27.132Z,62.89
2022-11-10T20:25:13.302Z,61.11
2022-11-10T20:28:01.529Z,61.64
2022-11-10T20:30:47.404Z,60.89
2022-11-10T20:33:33.527Z,61.63
2022-11-10T20:36:22.561Z,62.10
2022-11-10T20:39:08.392Z,61.23
2022-11-10T20:41:54.425Z,62.13
2022-11-10T20:44:40.448Z,61.96
2022-11-10T20:47:27.908Z,61.21
2022-11-10T20:50:17.189Z,61.56
2022-11-10T20:53:05.908Z,61.83
2022-11-10T20:56:02.025Z,61.20
2022-11-10T20:58:49.050Z,60.50
2022-11-10T21:01:35.402Z,61.18
2022-11-10T21:04:21.574Z,59.38
2022-11-10T21:07:07.458Z,59.65
2022-11-10T21:09:53.541Z,58.68
2022-11-10T21:12:50.976Z,58.35
2022-11-10T21:15:37.164Z,58.64
2022-11-10T21:18:24.699Z,58.08
2022-11-10T21:21:18.654Z,57.82
2022-11-10T21:24:04.757Z,58.42
2022-11-10T21:26:50.279Z,57.71
2022-11-10T21:29:35.988Z,57.81
2022-11-10T21:32:22.409Z,59.00
2022-11-10T21:35:08.543Z,58.46
2022-11-10T21:37:54.186Z,59.05
2022-11-10T21:40:40.112Z,57.31
2022-11-10T21:43:26.072Z,58.08
2022-11-10T21:46:11.926Z,57.79
2022-11-10T21:48:57.650Z,58.39
2022-11-10T21:51:43.410Z,59.81
2022-11-10T21:54:29.347Z,59.85
2022-11-10T21:57:15.141Z,58.45
2022-11-10T22:00:00.919Z,59.19
2022-11-10T22:02:46.652Z,59.56
2022-11-10T22:05:33.530Z,60.93
2022-11-10T22:08:21.894Z,59.88
2022-11-10T22:11:33.521Z,60.80
2022-11-10T22:14:38.039Z,59.83
2022-11-10T22:17:42.476Z,58.69
2022-11-10T22:20:28.454Z,58.94
2022-11-10T22:23:14.129Z,59.74
2022-11-10T22:26:00.023Z,61.41
2022-11-10T22:28:45.668Z,61.36
2022-11-10T22:31:32.761Z,60.26
2022-11-10T22:34:19.115Z,59.92
2022-11-10T22:37:04.974Z,59.47
2022-11-10T22:40:09.389Z,59.75
2022-11-10T22:43:13.835Z,59.54
2022-11-10T22:45:59.576Z,58.88
2022-11-10T22:48:45.344Z,58.95
2022-11-10T22:51:31.575Z,58.49
2022-11-10T22:54:18.220Z,59.47
2022-11-10T22:57:03.928Z,58.09
2022-11-10T22:59:49.906Z,57.49
2022-11-10T23:02:36.809Z,58.06
2022-11-10T23:05:22.347Z,59.20
2022-11-10T23:08:08.233Z,58.57
2022-11-10T23:11:04.306Z,58.19
2022-11-10T23:13:50.628Z,57.70
2022-11-10T23:16:36.274Z,58.31
2022-11-10T23:19:22.147Z,57.00
2022-11-10T23:22:07.935Z,57.48
2022-11-10T23:24:57.158Z,57.04
2022-11-10T23:27:43.290Z,57.55
2022-11-10T23:30:29.285Z,56.89
2022-11-10T23:33:14.900Z,57.24
2022-11-10T23:36:00.804Z,56.07
2022-11-10T23:38:48.644Z,57.52
2022-11-10T23:41:34.160Z,56.00
2022-11-10T23:44:20.697Z,56.04
2022-11-10T23:47:06.609Z,55.61
2022-11-10T23:49:52.245Z,55.62
2022-11-10T23:52:38.092Z,55.64
2022-11-10T23:55:23.593Z,56.07
2022-11-10T23:58:09.600Z,55.67
